Terminal Aerodrome Forecast
Issued by NWS

Home | Current Version | Previous Version | Text Only | Print | Product List | Glossary On
Versions: 1 2 3 4 5 6 7 8 9 10 11 12 13 14 15
393
FTUS46 KSGX 300520
TAFSNA
TAF
KSNA 300520Z 3006/0106 22007KT P6SM VCSH BKN018
     FM301200 16008KT P6SM OVC022
     FM301900 22009KT P6SM SCT025
     FM010100 VRB05KT P6SM SCT025=

USA.gov is the U.S. government's official web portal to all federal, state and local government web resources and services.